Main page
METAR-TAF:

METAR-TAF

Airports :

Tripoli, Libya

Mitiga International Airport

latitude: 32-54N, longitude: 13-17E, elevation: 11 m

Current weather observation

The report was made 17 minutes ago, at 18:55 UTC
Wind 1 kt from the Northwest
Temperature 22°C
Humidity 83%
Pressure 1019 hPa
Visibility: 7000 m
Few clouds at a height of 2500 ft
Scattered clouds at a height of 7000 ft

METAR: HLLM 211855Z 31001KT 7000 FEW025 SCT070 22/19 Q1019

Time: 21:12 (19:12 UTC)

Forecast

The report was made 2 hours and 12 minutes ago, at 17:00 UTC
Forecast valid from 21 at 18 UTC to 22 at 18 UTC
Wind 2 kt from variable directions
Visibility 10 km or more
Broken clouds at a height of 2200 ft
Temporary
from 21 at 18 UTC to 21 at 24 UTC
Visibility: 5000 m
Few clouds at a height of 2000 ft, Towering cumulus.
Broken clouds at a height of 2200 ft
rain showers
Becoming
from 22 at 10 UTC to 22 at 12 UTC
Wind 10 kt from the North

TAF: HLLM 211700Z 2118/2218 VRB02KT 9999 BKN022 TEMPO 2118/2124 5000 SHRA FEW020TCU BKN022 BECMG 2210/2212 36010KT

Weather observations and forecasts of more than 4000 airports (METAR and TAF reports).

The available stations are represented by yellow and red dots on the map.

Hover mouse over dot to see the name of the station.

Then click to see weather observations and forecasts.

To change the map : click on the green buttons with a black cross to zoom in, on the green button with a dash to zoom out, or on the green arrows for adjacent maps.


METAR-TAF: